Time;durP1;ratioP1;P1;durP2;ratioP2;P2;SDS_P1;SDS_P2;PMS_P1;PMS_P2;Temp;Humidity;BMP_temperature;BMP_pressure;BME280_temperature;BME280_humidity;BME280_pressure;Samples;Min_cycle;Max_cycle;Signal;HPM_P1;HPM_P2
2021/06/12 00:02:14;;;;;;;1.70;1.58;;;;;;;16.85;74.44;101335.13;5054706;28;20024;-70
2021/06/12 00:04:40;;;;;;;2.65;2.08;;;;;;;16.90;75.22;101325.31;5056106;28;20020;-69
2021/06/12 00:07:05;;;;;;;2.25;1.85;;;;;;;16.78;74.85;101320.41;5056313;28;20021;-69
2021/06/12 00:09:31;;;;;;;2.22;1.52;;;;;;;16.75;75.28;101317.88;5039305;28;20351;-69
2021/06/12 00:11:56;;;;;;;1.92;1.83;;;;;;;16.85;74.89;101324.56;5039429;28;20020;-70
2021/06/12 00:14:22;;;;;;;2.13;2.03;;;;;;;16.84;74.99;101312.31;5039818;28;20025;-70
2021/06/12 00:16:47;;;;;;;2.17;2.08;;;;;;;16.77;75.41;101318.69;5056179;28;20413;-70
2021/06/12 00:19:12;;;;;;;3.08;1.75;;;;;;;16.67;75.63;101316.34;5039367;28;20027;-70
2021/06/12 00:21:38;;;;;;;1.80;1.70;;;;;;;16.69;75.86;101309.25;5055919;28;20036;-69
2021/06/12 00:24:04;;;;;;;2.55;2.42;;;;;;;16.67;75.67;101315.47;5056491;28;20028;-69
2021/06/12 00:26:30;;;;;;;2.17;2.03;;;;;;;16.62;76.22;101307.72;5055880;28;20025;-69
2021/06/12 00:28:55;;;;;;;2.58;2.20;;;;;;;16.67;76.17;101304.94;5039129;28;20175;-70
2021/06/12 00:31:21;;;;;;;1.98;1.77;;;;;;;16.79;75.63;101311.59;5039387;28;20028;-70
2021/06/12 00:33:46;;;;;;;2.63;2.13;;;;;;;16.70;75.88;101316.25;5056121;28;20029;-70
2021/06/12 00:36:11;;;;;;;2.08;1.98;;;;;;;16.59;76.33;101318.34;5056384;28;20028;-69
2021/06/12 00:38:37;;;;;;;2.17;2.05;;;;;;;16.63;76.15;101313.84;5073110;28;20020;-70
2021/06/12 00:41:02;;;;;;;2.15;2.05;;;;;;;16.69;76.34;101311.03;5073792;28;20024;-70
2021/06/12 00:43:27;;;;;;;2.75;2.30;;;;;;;16.62;76.23;101317.41;5055591;28;20326;-70
2021/06/12 00:45:53;;;;;;;2.10;2.00;;;;;;;16.55;76.63;101311.44;5073836;28;20146;-70
2021/06/12 00:48:19;;;;;;;2.60;2.25;;;;;;;16.54;76.24;101315.03;5055725;28;20025;-69
2021/06/12 00:50:44;;;;;;;2.53;2.20;;;;;;;16.51;76.27;101309.81;5056182;28;20035;-69
2021/06/12 00:53:10;;;;;;;2.60;2.40;;;;;;;16.49;77.17;101309.03;5039707;28;20032;-69
2021/06/12 00:55:35;;;;;;;2.58;2.47;;;;;;;16.47;76.96;101302.91;5056113;28;20027;-69
2021/06/12 00:58:01;;;;;;;2.58;2.40;;;;;;;16.43;76.85;101304.81;5039477;28;20051;-69
2021/06/12 01:00:26;;;;;;;2.35;2.25;;;;;;;16.61;76.26;101306.00;5039175;28;20032;-69
2021/06/12 01:02:52;;;;;;;2.33;2.10;;;;;;;16.69;76.00;101308.41;5056471;28;20028;-70
2021/06/12 01:05:20;;;;;;;2.20;2.00;;;;;;;16.79;75.13;101306.31;5056594;28;20078;-70
2021/06/12 01:07:45;;;;;;;2.75;2.53;;;;;;;16.62;76.05;101299.81;5057118;28;20021;-69
2021/06/12 01:10:13;;;;;;;2.33;2.20;;;;;;;16.54;76.71;101299.19;5057017;28;20136;-69
2021/06/12 01:12:57;;;;;;;2.20;2.10;;;;;;;16.63;76.05;101292.75;5039580;28;20027;-70
2021/06/12 01:15:24;;;;;;;2.55;2.35;;;;;;;16.63;75.74;101283.06;5073601;28;20098;-70
2021/06/12 01:18:02;;;;;;;3.33;2.75;;;;;;;16.75;75.56;101270.41;5056974;28;20023;-69
2021/06/12 01:21:01;;;;;;;2.78;2.58;;;;;;;16.58;76.37;101273.56;5042884;28;20024;-69
2021/06/12 01:24:08;;;;;;;5.10;2.53;;;;;;;16.75;75.61;101270.41;5043184;28;20029;-69
2021/06/12 01:26:48;;;;;;;2.38;2.20;;;;;;;16.84;75.61;101275.38;5060004;28;20044;-70
2021/06/12 01:29:33;;;;;;;2.97;2.78;;;;;;;16.67;76.48;101268.84;5059508;28;20024;-70
2021/06/12 01:31:59;;;;;;;4.32;3.05;;;;;;;16.78;75.52;101273.78;5059804;28;20024;-70
2021/06/12 01:34:25;;;;;;;2.80;2.60;;;;;;;16.72;76.63;101261.66;5059914;28;20016;-71
2021/06/12 01:36:51;;;;;;;2.88;2.60;;;;;;;16.79;75.99;101266.75;5043299;28;20362;-71
2021/06/12 01:39:21;;;;;;;3.92;2.95;;;;;;;16.63;76.44;101267.22;5076791;28;20029;-70
2021/06/12 01:41:48;;;;;;;2.63;2.42;;;;;;;16.84;76.02;101268.31;5060510;28;20433;-70
2021/06/12 01:44:14;;;;;;;3.75;2.70;;;;;;;16.63;76.50;101266.38;5043490;28;20115;-71
2021/06/12 01:46:39;;;;;;;3.92;2.55;;;;;;;16.61;76.34;101263.81;5042952;28;20055;-70
2021/06/12 01:49:06;;;;;;;3.03;2.80;;;;;;;16.62;77.31;101260.25;5042136;28;20109;-70
2021/06/12 01:51:32;;;;;;;3.38;3.08;;;;;;;16.44;77.96;101266.97;5059405;28;20025;-70
2021/06/12 01:53:57;;;;;;;3.00;2.80;;;;;;;16.51;77.54;101257.97;5059209;28;20147;-70
2021/06/12 01:56:24;;;;;;;3.45;3.25;;;;;;;16.52;77.89;101264.09;5059348;28;20059;-70
2021/06/12 01:58:49;;;;;;;4.30;3.90;;;;;;;16.56;77.68;101253.41;5042020;28;20025;-70
2021/06/12 02:01:16;;;;;;;6.60;4.90;;;;;;;16.56;78.04;101249.88;5058866;28;20032;-70
2021/06/12 02:03:43;;;;;;;4.80;4.05;;;;;;;16.57;78.14;101251.63;5042239;28;20024;-70
2021/06/12 02:06:15;;;;;;;5.22;4.82;;;;;;;16.65;78.40;101251.38;5042068;28;20119;-70
2021/06/12 02:08:42;;;;;;;5.70;5.30;;;;;;;16.61;78.34;101245.34;5058692;28;20028;-70
2021/06/12 02:11:08;;;;;;;5.40;4.85;;;;;;;16.59;78.24;101239.22;5058312;28;20025;-70
2021/06/12 02:13:35;;;;;;;5.45;5.05;;;;;;;16.50;79.21;101242.19;5041977;28;20028;-70
2021/06/12 02:16:01;;;;;;;5.82;5.43;;;;;;;16.49;79.23;101237.81;5041896;28;20024;-70
2021/06/12 02:18:28;;;;;;;6.90;6.28;;;;;;;16.49;79.48;101240.47;5058359;28;20473;-70
2021/06/12 02:20:54;;;;;;;6.43;5.93;;;;;;;16.45;79.74;101246.75;5058904;28;20328;-70
2021/06/12 02:23:22;;;;;;;6.70;6.10;;;;;;;16.48;79.80;101236.94;5058275;28;20374;-70
2021/06/12 02:25:48;;;;;;;6.85;6.25;;;;;;;16.59;79.56;101243.66;5058620;28;20025;-70
2021/06/12 02:28:14;;;;;;;8.02;6.20;;;;;;;16.57;79.12;101241.06;5075281;28;20024;-70
2021/06/12 02:30:46;;;;;;;9.00;6.22;;;;;;;16.66;79.12;101243.41;5041426;28;20025;-70
2021/06/12 02:33:14;;;;;;;6.95;6.40;;;;;;;16.60;79.33;101243.59;5058266;28;20034;-70
2021/06/12 02:35:42;;;;;;;8.63;6.93;;;;;;;16.51;79.75;101238.63;5058385;28;20028;-70
2021/06/12 02:38:08;;;;;;;7.38;6.68;;;;;;;16.52;80.05;101249.16;5075770;28;20032;-70
2021/06/12 02:40:33;;;;;;;7.43;6.82;;;;;;;16.48;80.30;101246.63;5057867;28;20035;-70
2021/06/12 02:42:58;;;;;;;8.95;7.63;;;;;;;16.56;79.82;101239.34;5041650;28;20056;-70
2021/06/12 02:45:25;;;;;;;6.97;6.40;;;;;;;16.71;79.26;101246.78;5057427;28;20032;-70
2021/06/12 02:47:54;;;;;;;7.85;7.07;;;;;;;16.50;80.31;101247.47;5058205;28;20036;-70
2021/06/12 02:50:20;;;;;;;26.67;8.10;;;;;;;16.52;80.00;101240.34;5057128;28;20044;-70
2021/06/12 02:52:46;;;;;;;9.00;7.88;;;;;;;16.47;80.36;101240.53;5041353;28;20024;-70
2021/06/12 02:55:13;;;;;;;9.25;8.35;;;;;;;16.57;80.32;101235.81;5057769;28;20024;-69
2021/06/12 02:57:46;;;;;;;8.82;7.93;;;;;;;16.49;80.78;101237.81;5058081;28;20017;-68
2021/06/12 03:00:12;;;;;;;8.25;7.45;;;;;;;16.56;81.58;101239.34;5057222;28;20028;-70
2021/06/12 03:02:40;;;;;;;9.27;8.30;;;;;;;16.52;82.13;101237.72;5057687;28;20418;-70
2021/06/12 03:05:07;;;;;;;9.35;8.55;;;;;;;16.39;82.72;101232.00;5058036;28;20361;-70
2021/06/12 03:07:34;;;;;;;9.38;8.40;;;;;;;16.41;83.47;101239.84;5056193;28;20029;-70
2021/06/12 03:09:59;;;;;;;12.85;9.95;;;;;;;16.30;84.35;101238.41;5057503;28;20031;-70
2021/06/12 03:12:26;;;;;;;13.15;9.68;;;;;;;16.24;85.22;101238.63;5057272;28;20338;-70
2021/06/12 03:14:51;;;;;;;14.05;10.50;;;;;;;16.17;86.41;101237.06;5057893;28;20025;-70
2021/06/12 03:17:19;;;;;;;12.13;10.23;;;;;;;16.14;86.83;101231.88;5057316;28;20056;-70
2021/06/12 03:19:46;;;;;;;10.65;9.38;;;;;;;16.15;86.58;101228.34;5057086;28;20060;-70
2021/06/12 03:22:11;;;;;;;12.23;10.93;;;;;;;16.05;87.12;101226.00;5040427;28;20020;-70
2021/06/12 03:24:37;;;;;;;14.30;11.68;;;;;;;16.08;87.21;101221.56;5040959;28;20035;-70
2021/06/12 03:27:02;;;;;;;14.45;10.35;;;;;;;16.12;86.82;101215.28;5040891;28;20026;-69
2021/06/12 03:29:28;;;;;;;15.80;10.65;;;;;;;16.15;86.93;101212.53;5040075;28;20033;-70
2021/06/12 03:31:55;;;;;;;19.88;11.93;;;;;;;16.03;87.21;101221.69;5057305;28;20322;-70
2021/06/12 03:34:20;;;;;;;14.80;11.88;;;;;;;15.95;87.80;101227.19;5074624;28;20036;-70
2021/06/12 03:36:46;;;;;;;15.07;11.75;;;;;;;15.98;87.52;101215.69;5057176;28;20353;-70
2021/06/12 03:39:11;;;;;;;13.73;11.23;;;;;;;16.17;87.04;101211.59;5056496;28;20032;-70
2021/06/12 03:41:37;;;;;;;16.15;11.93;;;;;;;15.99;87.68;101223.56;5039475;28;20082;-69
2021/06/12 03:44:03;;;;;;;13.98;12.50;;;;;;;15.93;87.95;101223.72;5057105;28;20304;-69
2021/06/12 03:46:28;;;;;;;13.75;11.63;;;;;;;16.11;87.72;101210.91;5057161;28;20103;-70
2021/06/12 03:48:54;;;;;;;16.40;12.95;;;;;;;16.01;87.90;101200.66;5040122;28;20690;-70
2021/06/12 03:51:20;;;;;;;17.17;13.02;;;;;;;16.01;87.73;101211.19;5039985;28;20016;-70
2021/06/12 03:53:47;;;;;;;17.58;13.25;;;;;;;16.02;88.03;101220.81;5057020;28;20020;-69
2021/06/12 03:56:21;;;;;;;20.88;14.02;;;;;;;16.04;87.52;101226.88;5056867;28;20419;-70
2021/06/12 03:58:47;;;;;;;15.93;12.50;;;;;;;16.09;87.73;101228.53;5073984;28;20346;-70
2021/06/12 04:01:16;;;;;;;14.93;11.70;;;;;;;16.25;87.36;101219.22;5073936;28;20025;-70
2021/06/12 04:03:42;;;;;;;13.80;12.13;;;;;;;16.32;86.98;101219.91;5040305;28;20358;-70
2021/06/12 04:06:08;;;;;;;16.15;12.52;;;;;;;16.19;87.57;101219.44;5056649;28;20017;-70
2021/06/12 04:08:33;;;;;;;14.68;12.20;;;;;;;16.22;87.48;101214.06;5056297;28;20025;-70
2021/06/12 04:10:59;;;;;;;17.00;12.68;;;;;;;16.13;87.61;101216.97;5040219;28;20025;-70
2021/06/12 04:13:26;;;;;;;15.55;13.52;;;;;;;15.99;88.19;101217.41;5040221;28;20024;-70
2021/06/12 04:15:51;;;;;;;17.90;13.40;;;;;;;16.09;88.11;101217.97;5056184;28;20024;-70
2021/06/12 04:18:16;;;;;;;16.65;13.20;;;;;;;16.11;88.10;101221.44;5057109;28;20425;-69
2021/06/12 04:20:42;;;;;;;18.15;13.52;;;;;;;16.02;88.25;101223.47;5056508;28;20032;-70
2021/06/12 04:23:07;;;;;;;15.90;12.77;;;;;;;16.13;88.57;101219.59;5056473;28;20024;-71
2021/06/12 04:25:33;;;;;;;13.20;11.68;;;;;;;16.35;87.82;101215.41;5056473;28;20027;-70
2021/06/12 04:27:58;;;;;;;12.80;10.95;;;;;;;16.36;87.49;101210.97;5039606;28;20034;-70
2021/06/12 04:30:24;;;;;;;12.55;11.02;;;;;;;16.37;87.48;101207.44;5038955;28;20056;-70
2021/06/12 04:32:50;;;;;;;23.23;13.13;;;;;;;16.14;87.74;101210.81;5074262;28;20087;-71
2021/06/12 04:35:15;;;;;;;17.17;13.45;;;;;;;16.13;87.64;101195.91;5039737;28;20410;-70
2021/06/12 04:37:42;;;;;;;15.13;12.10;;;;;;;16.16;87.70;101206.38;5056191;28;20024;-70
2021/06/12 04:40:10;;;;;;;15.35;12.60;;;;;;;16.29;87.93;101205.06;5055457;28;20025;-70
2021/06/12 04:42:36;;;;;;;19.20;14.88;;;;;;;16.23;87.59;101210.53;5056267;28;20422;-70
2021/06/12 04:45:01;;;;;;;19.17;14.57;;;;;;;16.15;88.50;101212.53;5055748;28;20066;-70
2021/06/12 04:47:26;;;;;;;16.88;13.73;;;;;;;16.19;87.88;101217.66;5039541;28;20087;-70
2021/06/12 04:49:52;;;;;;;18.63;14.63;;;;;;;16.32;87.38;101217.25;5073151;28;20377;-70
2021/06/12 04:52:17;;;;;;;19.55;13.50;;;;;;;16.34;87.72;101208.41;5038735;28;20012;-70
2021/06/12 04:54:45;;;;;;;14.30;12.88;;;;;;;16.33;87.41;101203.19;5056084;28;20056;-70
2021/06/12 04:57:10;;;;;;;15.77;13.55;;;;;;;16.26;87.83;101212.19;5055657;28;20024;-70
2021/06/12 04:59:36;;;;;;;15.85;12.65;;;;;;;16.28;87.23;101215.63;5038732;28;20111;-70
2021/06/12 05:02:01;;;;;;;18.92;12.90;;;;;;;16.29;87.67;101212.09;5055427;28;20132;-70
2021/06/12 05:04:26;;;;;;;16.38;13.13;;;;;;;16.29;87.37;101220.88;5055967;28;20107;-70
2021/06/12 05:06:51;;;;;;;13.80;11.80;;;;;;;16.46;87.46;101227.38;5055564;28;20032;-70
2021/06/12 05:09:17;;;;;;;18.92;13.57;;;;;;;16.35;86.93;101227.72;5038788;28;20027;-70
2021/06/12 05:11:42;;;;;;;15.75;11.60;;;;;;;16.56;86.71;101220.88;5055721;28;20035;-70
2021/06/12 05:14:07;;;;;;;15.45;12.93;;;;;;;16.50;86.93;101218.47;5055652;28;20016;-70
2021/06/12 05:16:34;;;;;;;13.60;11.55;;;;;;;16.54;86.64;101222.72;5039271;28;20025;-70
2021/06/12 05:19:00;;;;;;;15.75;12.45;;;;;;;16.64;86.03;101226.75;5054980;28;20028;-70
2021/06/12 05:21:27;;;;;;;18.83;14.75;;;;;;;16.41;86.53;101224.03;5039036;28;20024;-70
2021/06/12 05:23:53;;;;;;;19.45;15.32;;;;;;;16.49;86.53;101232.56;5055485;28;20024;-70
2021/06/12 05:26:19;;;;;;;18.95;15.77;;;;;;;16.47;87.25;101226.44;5055779;28;20052;-70
2021/06/12 05:28:44;;;;;;;25.17;15.90;;;;;;;16.44;87.00;101229.19;5055193;28;20028;-69
2021/06/12 05:31:09;;;;;;;18.25;14.15;;;;;;;16.49;87.10;101222.84;5073111;28;20032;-68
2021/06/12 05:33:35;;;;;;;19.73;15.38;;;;;;;16.60;86.58;101225.13;5055629;28;20107;-68
2021/06/12 05:36:01;;;;;;;21.42;16.52;;;;;;;16.60;86.14;101219.88;5055199;28;20035;-68
2021/06/12 05:38:26;;;;;;;22.88;16.73;;;;;;;16.41;86.75;101218.75;5054026;28;20055;-68
2021/06/12 05:40:52;;;;;;;23.33;16.98;;;;;;;16.69;85.60;101213.44;5072682;28;20103;-69
2021/06/12 05:43:17;;;;;;;22.65;17.35;;;;;;;16.64;85.76;101216.22;5055800;28;20031;-69
2021/06/12 05:45:44;;;;;;;27.55;19.05;;;;;;;16.55;86.77;101205.97;5055481;28;20322;-69
2021/06/12 05:48:09;;;;;;;25.83;18.30;;;;;;;16.61;85.42;101205.78;5055833;28;20103;-68
2021/06/12 05:50:34;;;;;;;25.05;18.50;;;;;;;16.54;86.15;101201.63;5038323;28;20063;-68
2021/06/12 05:53:00;;;;;;;25.48;18.17;;;;;;;16.75;85.60;101201.81;5055338;28;20111;-68
2021/06/12 05:55:25;;;;;;;28.65;18.67;;;;;;;16.92;84.28;101196.88;5034650;28;20020;-69
2021/06/12 05:57:50;;;;;;;24.52;17.88;;;;;;;16.90;84.89;101202.16;5019118;28;20032;-69
2021/06/12 06:00:16;;;;;;;25.35;19.23;;;;;;;16.87;84.67;101204.03;5052702;28;20028;-69
2021/06/12 06:02:42;;;;;;;25.48;18.77;;;;;;;16.91;84.41;101197.78;5034951;28;20033;-69
2021/06/12 06:05:07;;;;;;;27.50;18.85;;;;;;;16.97;84.09;101197.53;5055936;28;20407;-69
2021/06/12 06:07:33;;;;;;;29.05;20.05;;;;;;;16.89;84.36;101194.31;5055801;28;20319;-69
2021/06/12 06:09:58;;;;;;;29.92;19.45;;;;;;;16.81;84.49;101197.19;5039010;28;20033;-69
2021/06/12 06:12:24;;;;;;;28.38;20.20;;;;;;;16.85;83.87;101193.53;5036679;28;20415;-68
2021/06/12 06:14:49;;;;;;;29.20;19.30;;;;;;;16.78;84.63;101191.16;5035445;28;20036;-68
2021/06/12 06:17:14;;;;;;;28.58;20.15;;;;;;;16.71;84.80;101204.56;5018929;28;20087;-69
2021/06/12 06:19:40;;;;;;;23.20;17.73;;;;;;;16.88;84.11;101195.22;5020711;28;20115;-69
2021/06/12 06:22:05;;;;;;;25.52;18.33;;;;;;;16.95;83.92;101194.09;5021915;28;20408;-70
2021/06/12 06:24:30;;;;;;;27.40;19.05;;;;;;;16.94;84.15;101183.63;5055865;28;20108;-69
2021/06/12 06:26:56;;;;;;;23.67;18.35;;;;;;;16.96;83.69;101180.00;5020353;28;20339;-70
2021/06/12 06:29:21;;;;;;;26.00;18.67;;;;;;;16.88;83.81;101188.16;5038292;28;20035;-69
2021/06/12 06:31:46;;;;;;;22.88;17.95;;;;;;;17.03;83.14;101176.22;5038638;28;20056;-69
2021/06/12 06:34:12;;;;;;;29.65;19.52;;;;;;;16.90;83.75;101169.66;5038737;28;20066;-69
2021/06/12 06:36:38;;;;;;;25.98;18.15;;;;;;;16.91;83.29;101158.19;5038870;28;20025;-69
2021/06/12 06:39:04;;;;;;;26.05;19.25;;;;;;;17.00;83.57;101167.53;5038912;28;20032;-69
2021/06/12 06:41:29;;;;;;;24.75;18.67;;;;;;;17.06;83.00;101169.97;5038876;28;20550;-70
2021/06/12 06:43:54;;;;;;;25.98;18.27;;;;;;;17.31;82.16;101169.09;5058591;28;20049;-70
2021/06/12 06:46:20;;;;;;;22.35;18.30;;;;;;;17.45;80.86;101171.22;5027823;28;20051;-70
2021/06/12 06:48:45;;;;;;;24.90;19.73;;;;;;;17.38;80.99;101176.72;5054203;28;20102;-70
2021/06/12 06:51:10;;;;;;;25.70;19.33;;;;;;;17.60;80.78;101170.66;5044319;28;20035;-69
2021/06/12 06:53:36;;;;;;;25.40;19.65;;;;;;;17.85;79.38;101159.13;5057399;28;20103;-69
2021/06/12 06:56:02;;;;;;;24.65;18.85;;;;;;;17.62;79.48;101166.16;5053184;28;20327;-70
2021/06/12 06:58:28;;;;;;;25.38;18.40;;;;;;;17.65;79.79;101162.53;5046620;28;20021;-71
2021/06/12 07:00:54;;;;;;;24.98;18.83;;;;;;;17.56;79.85;101164.63;5073276;28;20410;-70
2021/06/12 07:03:19;;;;;;;29.40;19.13;;;;;;;17.55;79.82;101156.75;5032993;28;20033;-70
2021/06/12 07:05:45;;;;;;;26.98;19.85;;;;;;;17.62;79.46;101166.16;5042437;28;20122;-70
2021/06/12 07:08:10;;;;;;;22.70;18.40;;;;;;;17.66;79.11;101165.13;5057271;28;20070;-69
2021/06/12 07:10:36;;;;;;;22.88;17.95;;;;;;;17.62;79.57;101162.66;5036940;28;20485;-69
2021/06/12 07:13:01;;;;;;;21.27;17.40;;;;;;;17.51;79.58;101153.34;5056940;28;20028;-68
2021/06/12 07:15:27;;;;;;;24.50;17.98;;;;;;;17.26;80.18;101161.34;5074134;28;20079;-69
2021/06/12 07:17:53;;;;;;;21.65;17.92;;;;;;;17.23;80.22;101150.88;5046523;28;20030;-70
2021/06/12 07:20:18;;;;;;;20.92;16.98;;;;;;;17.28;80.85;101146.28;5046849;28;20060;-69
2021/06/12 07:22:44;;;;;;;24.83;17.88;;;;;;;17.42;79.74;101140.50;5030189;28;20055;-69
2021/06/12 07:25:10;;;;;;;23.02;18.15;;;;;;;17.26;80.40;101149.91;5031674;28;20029;-69
2021/06/12 07:27:35;;;;;;;21.85;18.35;;;;;;;17.10;82.16;101153.13;5046952;28;20027;-70
2021/06/12 07:30:02;;;;;;;20.45;15.80;;;;;;;16.97;83.26;101142.13;5048356;28;20016;-70
2021/06/12 07:32:27;;;;;;;26.92;18.65;;;;;;;16.83;84.17;101149.66;5053158;28;20103;-71
2021/06/12 07:34:52;;;;;;;23.67;18.10;;;;;;;16.78;84.98;101148.94;5045742;28;20058;-71
2021/06/12 07:37:18;;;;;;;21.65;17.02;;;;;;;16.64;87.20;101155.56;5056114;28;20501;-71
2021/06/12 07:39:43;;;;;;;25.95;17.80;;;;;;;16.56;88.18;101154.97;5054831;28;20047;-71
2021/06/12 07:42:08;;;;;;;24.45;18.08;;;;;;;16.66;87.95;101145.84;5050968;28;20399;-71
2021/06/12 07:44:34;;;;;;;20.42;16.08;;;;;;;16.66;87.47;101152.84;5048778;28;20047;-71
2021/06/12 07:46:59;;;;;;;22.02;17.75;;;;;;;16.58;87.93;101171.59;5023981;28;20033;-70
2021/06/12 07:49:24;;;;;;;27.38;17.95;;;;;;;16.28;89.50;101162.91;5040744;28;20016;-70
2021/06/12 07:51:50;;;;;;;24.83;15.40;;;;;;;16.16;90.24;101166.84;5050789;28;20040;-70
2021/06/12 07:54:15;;;;;;;20.55;14.05;;;;;;;16.15;90.70;101155.41;5064028;28;20099;-70
2021/06/12 07:56:41;;;;;;;16.65;13.45;;;;;;;16.03;91.63;101169.84;5039331;28;20025;-71
2021/06/12 07:59:06;;;;;;;17.65;14.32;;;;;;;15.95;91.78;101168.34;5049674;28;20024;-71
2021/06/12 08:01:32;;;;;;;20.38;14.02;;;;;;;15.89;91.86;101165.00;5073530;28;20024;-69
2021/06/12 08:03:58;;;;;;;15.88;13.35;;;;;;;15.95;90.88;101163.09;5039344;28;20025;-70
2021/06/12 08:06:23;;;;;;;22.05;13.57;;;;;;;16.05;90.96;101165.38;5043828;28;20017;-71
2021/06/12 08:08:48;;;;;;;17.25;13.02;;;;;;;16.11;90.61;101163.47;5041850;28;20017;-70
2021/06/12 08:11:14;;;;;;;20.38;15.32;;;;;;;16.08;89.82;101166.22;5064115;28;20079;-71
2021/06/12 08:13:39;;;;;;;21.63;16.08;;;;;;;16.18;90.98;101175.53;5025519;28;20021;-71
2021/06/12 08:16:05;;;;;;;20.88;14.35;;;;;;;16.27;90.01;101174.41;5044624;28;20052;-71
2021/06/12 08:18:31;;;;;;;18.70;15.57;;;;;;;16.25;89.93;101182.31;5064327;28;20056;-71
2021/06/12 08:20:57;;;;;;;18.70;14.35;;;;;;;16.42;89.52;101186.22;5026668;28;20025;-70
2021/06/12 08:23:22;;;;;;;18.55;14.52;;;;;;;16.20;88.68;101181.63;5062376;28;20019;-70
2021/06/12 08:25:48;;;;;;;16.20;13.45;;;;;;;16.23;88.18;101185.00;5040157;28;20033;-70
2021/06/12 08:28:13;;;;;;;18.20;14.45;;;;;;;16.33;88.65;101175.06;5055477;28;20099;-70
2021/06/12 08:30:39;;;;;;;17.70;14.63;;;;;;;16.44;89.02;101187.00;5070994;28;20031;-70
2021/06/12 08:33:05;;;;;;;16.00;13.40;;;;;;;16.50;88.42;101189.47;5039131;28;20111;-70
2021/06/12 08:35:31;;;;;;;16.00;13.20;;;;;;;16.45;88.64;101184.31;5053907;28;20426;-71
2021/06/12 08:37:57;;;;;;;17.73;15.15;;;;;;;16.51;88.83;101191.16;5040557;28;20071;-70
2021/06/12 08:40:23;;;;;;;14.90;12.57;;;;;;;16.48;87.39;101188.63;5062409;28;20031;-70
2021/06/12 08:42:50;;;;;;;13.20;11.85;;;;;;;16.36;88.00;101203.94;5048737;28;20350;-69
2021/06/12 08:45:20;;;;;;;12.73;11.43;;;;;;;16.39;86.81;101211.75;5047727;28;20326;-70
2021/06/12 08:47:46;;;;;;;12.07;10.88;;;;;;;16.29;87.33;101207.72;5047746;28;20072;-69
2021/06/12 08:50:12;;;;;;;13.30;10.65;;;;;;;16.15;86.60;101212.53;5022432;28;20378;-70
2021/06/12 08:52:38;;;;;;;10.82;9.75;;;;;;;16.29;85.13;101210.34;5035431;28;20430;-69
2021/06/12 08:55:06;;;;;;;12.75;10.43;;;;;;;16.39;83.93;101210.91;5025690;28;20021;-70
2021/06/12 08:57:31;;;;;;;10.82;9.30;;;;;;;16.53;82.09;101208.66;5042976;28;20067;-70
2021/06/12 08:59:56;;;;;;;12.52;9.88;;;;;;;16.50;82.75;101208.75;5062397;28;20024;-70
2021/06/12 09:02:22;;;;;;;13.32;9.55;;;;;;;16.48;82.06;101209.72;5055283;28;20131;-70
2021/06/12 09:04:50;;;;;;;12.23;7.70;;;;;;;16.29;80.91;101220.00;5055226;28;20048;-69
2021/06/12 09:07:22;;;;;;;8.63;7.13;;;;;;;16.52;80.59;101208.72;5045698;28;20024;-70
2021/06/12 09:09:49;;;;;;;6.03;4.75;;;;;;;16.47;78.91;101213.28;5063525;28;20021;-70
2021/06/12 09:12:15;;;;;;;7.55;4.88;;;;;;;16.30;77.99;101219.94;5037699;28;20033;-70
2021/06/12 09:14:40;;;;;;;8.15;4.30;;;;;;;16.31;76.47;101221.69;5053461;28;20338;-70
2021/06/12 09:17:09;;;;;;;6.90;3.47;;;;;;;16.48;76.06;101225.53;5049326;28;20419;-70
2021/06/12 09:19:39;;;;;;;3.72;2.92;;;;;;;16.37;76.64;101229.41;5046143;28;20031;-70
2021/06/12 09:22:06;;;;;;;3.40;3.00;;;;;;;16.47;74.94;101229.97;5070231;28;20322;-71
2021/06/12 09:24:41;;;;;;;3.33;3.03;;;;;;;16.50;76.35;101229.88;5053431;28;20032;-71
2021/06/12 09:27:13;;;;;;;3.05;2.70;;;;;;;16.58;75.16;101231.38;5039196;28;20040;-70
2021/06/12 09:29:43;;;;;;;5.80;2.75;;;;;;;16.86;73.67;101220.78;5055322;28;20024;-70
2021/06/12 09:32:18;;;;;;;3.25;2.45;;;;;;;17.12;70.69;101224.31;5038677;28;20027;-70
2021/06/12 09:34:44;;;;;;;4.75;2.75;;;;;;;17.55;70.87;101233.34;5055516;28;20021;-71
2021/06/12 09:37:16;;;;;;;5.47;2.70;;;;;;;17.17;68.88;101228.50;5054203;28;20066;-70
2021/06/12 09:39:42;;;;;;;5.15;2.53;;;;;;;17.34;69.16;101237.63;5058038;28;20021;-70
2021/06/12 09:42:07;;;;;;;4.80;2.65;;;;;;;17.24;65.86;101234.44;5055626;28;20029;-70
2021/06/12 09:44:48;;;;;;;6.50;2.50;;;;;;;17.31;67.16;101243.00;5053431;28;20057;-70
2021/06/12 09:47:21;;;;;;;5.40;2.67;;;;;;;17.41;67.18;101244.41;5059005;28;20070;-70
2021/06/12 09:49:47;;;;;;;6.00;2.53;;;;;;;17.25;66.93;101236.19;5041971;28;20024;-70
2021/06/12 09:52:15;;;;;;;3.55;2.00;;;;;;;17.71;65.35;101226.56;5042297;28;20093;-71
2021/06/12 09:54:42;;;;;;;3.08;1.80;;;;;;;17.49;62.59;101234.44;5076527;28;20445;-70
2021/06/12 09:57:10;;;;;;;3.15;1.73;;;;;;;17.62;62.44;101237.47;5076415;28;20025;-70
2021/06/12 09:59:40;;;;;;;2.40;1.70;;;;;;;17.88;59.98;101239.13;5041969;28;20070;-70
2021/06/12 10:02:06;;;;;;;6.15;1.95;;;;;;;18.12;60.51;101238.28;5041514;28;20342;-70
2021/06/12 10:04:32;;;;;;;2.30;1.85;;;;;;;18.60;60.30;101242.53;5057887;28;20036;-70
2021/06/12 10:06:57;;;;;;;3.08;2.50;;;;;;;18.57;61.31;101229.44;5058719;28;20333;-70
2021/06/12 10:09:24;;;;;;;3.70;1.75;;;;;;;18.46;60.36;101226.34;5057778;28;20020;-70
2021/06/12 10:11:49;;;;;;;6.30;1.92;;;;;;;18.65;62.11;101237.91;5051895;28;20068;-70
2021/06/12 10:14:15;;;;;;;7.13;1.77;;;;;;;18.88;62.84;101241.38;5058337;28;20052;-70
2021/06/12 10:16:41;;;;;;;5.43;1.85;;;;;;;18.55;61.33;101244.50;5058079;28;20429;-70
2021/06/12 10:19:07;;;;;;;3.42;1.70;;;;;;;18.05;60.59;101251.75;5041267;28;20476;-70
2021/06/12 10:21:32;;;;;;;5.35;1.45;;;;;;;18.07;59.68;101252.53;5042059;28;20115;-70
2021/06/12 10:23:58;;;;;;;5.50;1.42;;;;;;;18.10;58.20;101242.78;5058912;28;20326;-70
2021/06/12 10:26:23;;;;;;;3.20;1.48;;;;;;;18.00;58.13;101251.03;5059277;28;20020;-70
2021/06/12 10:28:49;;;;;;;2.28;1.40;;;;;;;18.04;58.65;101252.66;5058198;28;20028;-70
2021/06/12 10:31:17;;;;;;;3.92;1.40;;;;;;;18.28;57.88;101257.88;5057814;28;20016;-70
2021/06/12 10:33:44;;;;;;;6.13;1.45;;;;;;;18.40;57.18;101257.41;5057560;28;20028;-70
2021/06/12 10:36:15;;;;;;;5.05;1.77;;;;;;;18.17;58.70;101265.41;5033485;28;20028;-70
2021/06/12 10:38:43;;;;;;;3.33;1.52;;;;;;;17.88;58.66;101264.69;5040879;28;20035;-70
2021/06/12 10:41:23;;;;;;;2.75;1.52;;;;;;;17.49;59.08;101262.59;5046585;28;20025;-70
2021/06/12 10:43:51;;;;;;;2.35;1.45;;;;;;;17.43;60.29;101273.41;5038301;28;20025;-70
2021/06/12 10:46:23;;;;;;;5.47;1.45;;;;;;;17.04;63.10;101278.25;5064530;28;20016;-70
2021/06/12 10:48:53;;;;;;;5.68;1.58;;;;;;;16.85;60.98;101282.38;5058042;28;20050;-70
2021/06/12 10:51:27;;;;;;;5.35;1.55;;;;;;;17.33;59.70;101273.72;5057396;28;20032;-70
2021/06/12 10:54:08;;;;;;;4.18;1.23;;;;;;;17.81;58.03;101279.06;5061962;28;20053;-70
2021/06/12 10:56:39;;;;;;;2.17;1.02;;;;;;;18.11;56.32;101276.22;5054336;28;20036;-70
2021/06/12 10:59:05;;;;;;;4.38;1.70;;;;;;;17.88;58.73;101286.69;5053964;28;20044;-70
2021/06/12 11:01:31;;;;;;;1.98;0.90;;;;;;;17.96;56.72;101269.75;5054503;28;20021;-70
2021/06/12 11:06:32;;;;;;;4.10;1.30;;;;;;;18.10;54.16;101277.13;5055658;28;20115;-71
2021/06/12 11:09:13;;;;;;;2.83;1.25;;;;;;;18.18;54.97;101278.53;5054561;28;20032;-69
2021/06/12 11:11:42;;;;;;;7.22;1.70;;;;;;;18.29;54.26;101269.34;5055170;28;20119;-70
2021/06/12 11:14:23;;;;;;;1.25;0.95;;;;;;;18.18;55.54;101277.69;5054676;28;20020;-68
2021/06/12 11:17:07;;;;;;;2.42;1.08;;;;;;;18.08;55.31;101278.03;5056758;28;20326;-70
2021/06/12 11:19:33;;;;;;;3.33;1.30;;;;;;;18.18;55.36;101289.13;5054427;28;20083;-70